createdAt,value
2023-04-16T00:01:26.151Z,10.10
2023-04-16T00:03:52.747Z,10.12
2023-04-16T00:06:19.393Z,10.13
2023-04-16T00:08:45.883Z,10.12
2023-04-16T00:11:12.584Z,10.11
2023-04-16T00:13:39.070Z,10.12
2023-04-16T00:16:05.951Z,10.09
2023-04-16T00:18:32.424Z,10.10
2023-04-16T00:20:59.541Z,10.13
2023-04-16T00:23:26.021Z,10.11
2023-04-16T00:25:53.745Z,10.09
2023-04-16T00:28:20.456Z,10.06
2023-04-16T00:30:46.892Z,10.09
2023-04-16T00:33:13.454Z,10.06
2023-04-16T00:35:40.065Z,10.07
2023-04-16T00:38:06.494Z,10.07
2023-04-16T00:40:32.919Z,10.04
2023-04-16T00:42:59.404Z,10.01
2023-04-16T00:45:25.871Z,10.01
2023-04-16T00:47:52.409Z,9.98
2023-04-16T00:50:18.988Z,10.02
2023-04-16T00:52:48.325Z,10.00
2023-04-16T00:55:17.618Z,10.03
2023-04-16T00:57:50.057Z,10.04
2023-04-16T01:00:16.798Z,10.00
2023-04-16T01:02:43.507Z,9.99
2023-04-16T01:05:10.148Z,10.01
2023-04-16T01:07:36.810Z,10.01
2023-04-16T01:10:04.091Z,10.00
2023-04-16T01:12:30.611Z,9.94
2023-04-16T01:14:57.317Z,9.97
2023-04-16T01:17:23.829Z,9.98
2023-04-16T01:19:50.471Z,9.97
2023-04-16T01:22:17.190Z,9.96
2023-04-16T01:24:45.015Z,9.93
2023-04-16T01:27:37.527Z,9.94
2023-04-16T01:30:04.966Z,9.95
2023-04-16T01:32:32.297Z,9.91
2023-04-16T01:34:58.788Z,9.94
2023-04-16T01:37:25.416Z,9.90
2023-04-16T01:39:52.034Z,9.89
2023-04-16T01:42:18.413Z,9.88
2023-04-16T01:44:47.610Z,9.88
2023-04-16T01:47:14.294Z,9.87
2023-04-16T01:49:40.761Z,9.88
2023-04-16T01:52:08.440Z,9.86
2023-04-16T01:54:34.851Z,9.87
2023-04-16T01:57:01.751Z,9.89
2023-04-16T01:59:28.156Z,9.89
2023-04-16T02:01:54.744Z,9.84
2023-04-16T02:04:21.329Z,9.84
2023-04-16T02:06:47.722Z,9.86
2023-04-16T02:09:14.120Z,9.87
2023-04-16T02:11:40.614Z,9.90
2023-04-16T02:14:08.506Z,9.88
2023-04-16T02:16:34.946Z,9.89
2023-04-16T02:19:02.229Z,9.89
2023-04-16T02:21:28.864Z,9.83
2023-04-16T02:23:55.398Z,9.84
2023-04-16T02:26:21.809Z,9.88
2023-04-16T02:28:48.301Z,9.84
2023-04-16T02:31:17.865Z,9.83
2023-04-16T02:33:44.295Z,9.79
2023-04-16T02:36:11.267Z,9.77
2023-04-16T02:38:37.842Z,9.77
2023-04-16T02:41:04.383Z,9.75
2023-04-16T02:43:30.772Z,9.77
2023-04-16T02:45:59.193Z,9.73
2023-04-16T02:48:25.812Z,9.71
2023-04-16T02:50:52.219Z,9.73
2023-04-16T02:53:19.283Z,9.69
2023-04-16T02:55:52.856Z,9.66
2023-04-16T02:58:24.204Z,9.71
2023-04-16T03:00:51.362Z,9.71
2023-04-16T03:03:18.079Z,9.67
2023-04-16T03:05:44.513Z,9.68
2023-04-16T03:08:14.452Z,9.68
2023-04-16T03:10:41.533Z,9.61
2023-04-16T03:13:07.980Z,9.66
2023-04-16T03:15:34.433Z,9.65
2023-04-16T03:18:01.050Z,9.68
2023-04-16T03:20:27.590Z,9.64
2023-04-16T03:22:53.991Z,9.68
2023-04-16T03:25:20.731Z,9.64
2023-04-16T03:27:47.189Z,9.63
2023-04-16T03:30:14.779Z,9.62
2023-04-16T03:32:41.622Z,9.61
2023-04-16T03:35:09.208Z,9.62
2023-04-16T03:37:35.836Z,9.58
2023-04-16T03:40:02.235Z,9.64
2023-04-16T03:42:28.698Z,9.61
2023-04-16T03:44:55.195Z,9.60
2023-04-16T03:47:21.700Z,9.59
2023-04-16T03:49:48.148Z,9.55
2023-04-16T03:52:14.542Z,9.61
2023-04-16T03:54:40.964Z,9.64
2023-04-16T03:57:07.339Z,9.59
2023-04-16T03:59:33.937Z,9.60
2023-04-16T04:02:00.542Z,9.59
2023-04-16T04:04:27.269Z,9.60
2023-04-16T04:06:53.824Z,9.60
2023-04-16T04:09:20.298Z,9.62
2023-04-16T04:11:47.342Z,9.62
2023-04-16T04:14:13.778Z,9.62
2023-04-16T04:16:40.458Z,9.63
2023-04-16T04:19:07.017Z,9.64
2023-04-16T04:21:33.621Z,9.65
2023-04-16T04:24:00.046Z,9.62
2023-04-16T04:26:26.554Z,9.60
2023-04-16T04:28:52.995Z,9.62
2023-04-16T04:31:19.477Z,9.63
2023-04-16T04:33:46.349Z,9.62
2023-04-16T04:36:12.723Z,9.64
2023-04-16T04:38:39.110Z,9.64
2023-04-16T04:41:05.678Z,9.67
2023-04-16T04:43:32.092Z,9.64
2023-04-16T04:45:58.568Z,9.67
2023-04-16T04:48:26.768Z,9.69
2023-04-16T04:50:53.872Z,9.69
2023-04-16T04:53:20.589Z,9.70
2023-04-16T04:55:49.233Z,9.73
2023-04-16T04:58:17.365Z,9.77
2023-04-16T05:00:43.948Z,9.80
2023-04-16T05:03:12.417Z,9.82
2023-04-16T05:05:40.056Z,9.77
2023-04-16T05:08:06.478Z,9.76
2023-04-16T05:10:32.921Z,9.77
2023-04-16T05:12:59.321Z,9.78
2023-04-16T05:15:25.791Z,9.77
2023-04-16T05:17:52.230Z,9.80
2023-04-16T05:20:18.834Z,9.80
2023-04-16T05:22:45.209Z,9.84
2023-04-16T05:25:11.699Z,9.81
2023-04-16T05:27:38.376Z,9.80
2023-04-16T05:30:05.347Z,9.79
2023-04-16T05:32:31.854Z,9.77
2023-04-16T05:34:58.423Z,9.78
2023-04-16T05:37:24.908Z,9.81
2023-04-16T05:39:51.357Z,9.76
2023-04-16T05:42:17.841Z,9.76
2023-04-16T05:44:44.214Z,9.73
2023-04-16T05:47:10.804Z,9.75
2023-04-16T05:49:37.354Z,9.80
2023-04-16T05:52:04.613Z,9.78
2023-04-16T05:54:31.309Z,9.75
2023-04-16T05:56:57.737Z,9.76
2023-04-16T05:59:24.204Z,9.70
2023-04-16T06:01:50.845Z,9.70
2023-04-16T06:04:17.414Z,9.68
2023-04-16T06:06:44.013Z,9.77
2023-04-16T06:09:10.741Z,9.72
2023-04-16T06:11:37.415Z,9.69
2023-04-16T06:14:03.808Z,9.65
2023-04-16T06:16:30.444Z,9.69
2023-04-16T06:18:56.920Z,9.69
2023-04-16T06:21:23.547Z,9.74
2023-04-16T06:23:50.191Z,9.67
2023-04-16T06:26:16.598Z,9.70
2023-04-16T06:28:42.989Z,9.67
2023-04-16T06:31:09.476Z,9.70
2023-04-16T06:33:36.120Z,9.71
2023-04-16T06:36:02.573Z,9.71
2023-04-16T06:38:29.035Z,9.73
2023-04-16T06:40:56.451Z,9.75
2023-04-16T06:43:23.275Z,9.67
2023-04-16T06:45:50.017Z,9.69
2023-04-16T06:48:16.486Z,9.71
2023-04-16T06:50:42.891Z,9.74
2023-04-16T06:53:09.485Z,9.69
2023-04-16T06:55:35.873Z,9.73
2023-04-16T06:58:02.289Z,9.75
2023-04-16T07:00:28.691Z,9.77
2023-04-16T07:02:57.100Z,9.77
2023-04-16T07:05:25.163Z,9.80
2023-04-16T07:07:51.630Z,9.74
2023-04-16T07:10:18.300Z,9.82
2023-04-16T07:12:44.884Z,9.82
2023-04-16T07:15:11.403Z,9.77
2023-04-16T07:17:38.099Z,9.81
2023-04-16T07:20:05.142Z,9.85
2023-04-16T07:22:31.618Z,9.85
2023-04-16T07:24:58.015Z,9.87
2023-04-16T07:27:33.707Z,9.87
2023-04-16T07:30:00.147Z,9.92
2023-04-16T07:32:26.709Z,9.91
2023-04-16T07:34:53.286Z,9.94
2023-04-16T07:37:19.834Z,9.91
2023-04-16T07:39:47.207Z,9.90
2023-04-16T07:42:14.086Z,9.95
2023-04-16T07:44:41.050Z,9.95
2023-04-16T07:47:07.523Z,9.85
2023-04-16T07:49:33.906Z,9.87
2023-04-16T07:52:00.458Z,9.89
2023-04-16T07:54:28.990Z,9.94
2023-04-16T07:56:55.905Z,9.93
2023-04-16T07:59:24.048Z,9.97
2023-04-16T08:01:53.214Z,10.00
2023-04-16T08:04:24.522Z,9.96
2023-04-16T08:06:52.058Z,9.99
2023-04-16T08:09:20.521Z,9.98
2023-04-16T08:11:49.141Z,10.01
2023-04-16T08:14:16.956Z,9.97
2023-04-16T08:16:43.351Z,9.95
2023-04-16T08:19:10.115Z,9.99
2023-04-16T08:21:36.827Z,9.96
2023-04-16T08:24:03.258Z,9.97
2023-04-16T08:26:29.708Z,9.93
2023-04-16T08:28:56.433Z,9.94
2023-04-16T08:31:22.861Z,9.95
2023-04-16T08:33:49.382Z,9.97
2023-04-16T08:36:15.891Z,10.00
2023-04-16T08:38:42.407Z,10.00
2023-04-16T08:41:12.297Z,9.99
2023-04-16T08:43:43.475Z,10.02
2023-04-16T08:46:11.616Z,10.04
2023-04-16T08:48:41.938Z,10.05
2023-04-16T08:51:10.979Z,10.04
2023-04-16T08:53:49.297Z,10.07
2023-04-16T08:56:18.141Z,10.12
2023-04-16T08:58:47.521Z,10.10
2023-04-16T09:01:14.784Z,10.12
2023-04-16T09:03:41.748Z,10.08
2023-04-16T09:06:09.909Z,10.14
2023-04-16T09:08:38.062Z,10.22
2023-04-16T09:11:04.738Z,10.20
2023-04-16T09:13:34.204Z,10.26
2023-04-16T09:16:01.136Z,10.31
2023-04-16T09:18:28.414Z,10.28
2023-04-16T09:20:56.364Z,10.32
2023-04-16T09:23:23.056Z,10.36
2023-04-16T09:25:49.467Z,10.36
2023-04-16T09:28:43.166Z,10.38
2023-04-16T09:31:13.996Z,10.33
2023-04-16T09:33:41.144Z,10.33
2023-04-16T09:36:07.720Z,10.39
2023-04-16T09:38:54.918Z,10.39
2023-04-16T09:41:30.791Z,10.41
2023-04-16T09:43:59.170Z,10.45
2023-04-16T09:46:35.147Z,10.42
2023-04-16T09:49:16.175Z,10.38
2023-04-16T09:51:44.258Z,10.33
2023-04-16T09:54:10.721Z,10.33
2023-04-16T09:56:45.806Z,10.34
2023-04-16T09:59:18.668Z,10.41
2023-04-16T10:01:49.548Z,10.40
2023-04-16T10:04:16.700Z,10.46
2023-04-16T10:06:43.407Z,10.48
2023-04-16T10:09:10.938Z,10.52
2023-04-16T10:11:37.809Z,10.55
2023-04-16T10:14:04.270Z,10.59
2023-04-16T10:16:30.857Z,10.59
2023-04-16T10:18:58.499Z,10.61
2023-04-16T10:21:33.651Z,10.62
2023-04-16T10:24:00.559Z,10.64
2023-04-16T10:26:29.080Z,10.69
2023-04-16T10:28:56.345Z,10.76
2023-04-16T10:31:23.252Z,10.76
2023-04-16T10:33:50.252Z,10.75
2023-04-16T10:36:23.498Z,10.75
2023-04-16T10:38:52.503Z,10.72
2023-04-16T10:41:22.543Z,10.69
2023-04-16T10:43:52.785Z,10.62
2023-04-16T10:46:25.207Z,10.65
2023-04-16T10:48:54.584Z,10.67
2023-04-16T10:51:35.316Z,10.67
2023-04-16T10:54:16.825Z,10.67
2023-04-16T10:56:44.824Z,10.67
2023-04-16T10:59:12.129Z,10.65
2023-04-16T11:01:45.060Z,10.66
2023-04-16T11:04:20.883Z,10.68
2023-04-16T11:07:18.900Z,10.68
2023-04-16T11:10:02.108Z,10.70
2023-04-16T11:12:39.996Z,10.69
2023-04-16T11:15:12.419Z,10.70
2023-04-16T11:17:40.736Z,10.71
2023-04-16T11:20:17.501Z,10.71
2023-04-16T11:22:48.379Z,10.77
2023-04-16T11:25:34.129Z,10.77
2023-04-16T11:28:02.548Z,10.77
2023-04-16T11:30:34.649Z,10.78
2023-04-16T11:33:05.368Z,10.75
2023-04-16T11:35:32.354Z,10.78
2023-04-16T11:37:59.209Z,10.80
2023-04-16T11:40:29.977Z,10.75
2023-04-16T11:43:02.873Z,10.76
2023-04-16T11:45:29.365Z,10.72
2023-04-16T11:47:57.746Z,10.74
2023-04-16T11:50:26.068Z,10.72
2023-04-16T11:52:54.643Z,10.72
2023-04-16T11:55:22.242Z,10.70
2023-04-16T11:57:49.391Z,10.70
2023-04-16T12:00:18.143Z,10.68
2023-04-16T12:02:50.424Z,10.67
2023-04-16T12:05:33.952Z,10.64
2023-04-16T12:08:03.577Z,10.66
2023-04-16T12:10:34.838Z,10.61
2023-04-16T12:13:12.667Z,10.63
2023-04-16T12:15:49.255Z,10.59
2023-04-16T12:18:17.075Z,10.65
2023-04-16T12:20:44.660Z,10.66
2023-04-16T12:23:26.501Z,10.68
2023-04-16T12:25:53.888Z,10.66
2023-04-16T12:28:46.772Z,10.69
2023-04-16T12:31:14.489Z,10.72
2023-04-16T12:33:42.501Z,10.74
2023-04-16T12:36:19.265Z,10.74
2023-04-16T12:38:46.541Z,10.73
2023-04-16T12:41:13.277Z,10.74
2023-04-16T12:43:39.977Z,10.72
2023-04-16T12:46:06.897Z,10.70
2023-04-16T12:48:33.989Z,10.68
2023-04-16T12:51:00.751Z,10.72
2023-04-16T12:53:27.430Z,10.67
2023-04-16T12:55:54.283Z,10.70
2023-04-16T12:58:20.947Z,10.72
2023-04-16T13:00:47.469Z,10.75
2023-04-16T13:03:14.172Z,10.78
2023-04-16T13:05:40.907Z,10.80
2023-04-16T13:08:07.454Z,10.80
2023-04-16T13:10:35.332Z,10.78
2023-04-16T13:13:01.800Z,10.80
2023-04-16T13:15:28.887Z,10.79
2023-04-16T13:17:55.333Z,10.78
2023-04-16T13:20:24.347Z,10.76
2023-04-16T13:22:51.122Z,10.75
2023-04-16T13:25:17.550Z,10.74
2023-04-16T13:27:44.055Z,10.73
2023-04-16T13:30:10.984Z,10.75
2023-04-16T13:32:37.802Z,10.75
2023-04-16T13:35:04.591Z,10.76
2023-04-16T13:37:31.059Z,10.78
2023-04-16T13:39:57.568Z,10.81
2023-04-16T13:42:24.020Z,10.85
2023-04-16T13:44:53.164Z,10.86
2023-04-16T13:47:19.722Z,10.92
2023-04-16T13:49:46.273Z,10.99
2023-04-16T13:52:12.766Z,11.01
2023-04-16T13:55:52.590Z,11.07
2023-04-16T14:05:05.006Z,11.13
2023-04-16T14:14:03.152Z,11.23
2023-04-16T14:16:29.600Z,11.33
2023-04-16T14:18:56.501Z,11.35
2023-04-16T14:21:22.912Z,11.30
2023-04-16T14:23:49.623Z,11.23
2023-04-16T14:26:16.261Z,11.24
2023-04-16T14:28:42.755Z,11.17
2023-04-16T14:31:09.193Z,11.21
2023-04-16T14:33:35.716Z,11.22
2023-04-16T14:36:03.388Z,11.21
2023-04-16T14:38:31.182Z,11.23
2023-04-16T14:40:57.682Z,11.27
2023-04-16T14:43:24.085Z,11.31
2023-04-16T14:45:52.577Z,11.36
2023-04-16T14:48:19.295Z,11.43
2023-04-16T14:50:45.832Z,11.41
2023-04-16T14:53:12.345Z,11.44
2023-04-16T14:55:38.796Z,11.44
2023-04-16T14:58:05.464Z,11.57
2023-04-16T15:00:34.650Z,11.67
2023-04-16T15:03:01.297Z,11.62
2023-04-16T15:05:27.865Z,11.55
2023-04-16T15:07:55.022Z,11.41
2023-04-16T15:10:21.493Z,11.38
2023-04-16T15:12:47.898Z,11.39
2023-04-16T15:15:14.485Z,11.45
2023-04-16T15:17:41.057Z,11.52
2023-04-16T15:20:08.673Z,11.58
2023-04-16T15:22:35.339Z,11.49
2023-04-16T15:25:02.221Z,11.60
2023-04-16T15:27:28.650Z,11.65
2023-04-16T15:29:55.116Z,11.67
2023-04-16T15:32:21.569Z,11.60
2023-04-16T15:34:48.037Z,11.60
2023-04-16T15:37:15.460Z,11.58
2023-04-16T15:39:42.116Z,11.51
2023-04-16T15:42:08.657Z,11.43
2023-04-16T15:44:35.064Z,11.32
2023-04-16T15:47:01.566Z,11.19
2023-04-16T15:49:27.991Z,11.07
2023-04-16T15:51:55.571Z,11.07
2023-04-16T15:54:23.515Z,11.00
2023-04-16T15:56:50.334Z,10.96
2023-04-16T15:59:16.878Z,10.98
2023-04-16T16:01:43.364Z,10.94
2023-04-16T16:04:10.047Z,10.92
2023-04-16T16:06:38.075Z,10.94
2023-04-16T16:09:04.941Z,10.91
2023-04-16T16:11:32.612Z,10.91
2023-04-16T16:14:01.486Z,10.89
2023-04-16T16:16:28.442Z,10.82
2023-04-16T16:18:55.099Z,10.77
2023-04-16T16:21:21.709Z,10.74
2023-04-16T16:23:48.094Z,10.67
2023-04-16T16:26:14.591Z,10.57
2023-04-16T16:28:43.669Z,10.59
2023-04-16T16:31:10.613Z,10.58
2023-04-16T16:33:39.041Z,10.62
2023-04-16T16:36:10.274Z,10.61
2023-04-16T16:38:36.747Z,10.57
2023-04-16T16:41:03.159Z,10.59
2023-04-16T16:43:29.631Z,10.62
2023-04-16T16:45:56.213Z,10.62
2023-04-16T16:48:22.622Z,10.55
2023-04-16T16:50:49.025Z,10.56
2023-04-16T16:53:15.788Z,10.48
2023-04-16T16:55:42.259Z,10.43
2023-04-16T16:58:09.687Z,10.44
2023-04-16T17:00:36.228Z,10.46
2023-04-16T17:03:02.985Z,10.48
2023-04-16T17:05:29.700Z,10.57
2023-04-16T17:07:56.205Z,10.56
2023-04-16T17:10:23.071Z,10.58
2023-04-16T17:12:50.454Z,10.61
2023-04-16T17:15:21.946Z,10.66
2023-04-16T17:17:48.766Z,10.68
2023-04-16T17:20:15.713Z,10.70
2023-04-16T17:22:42.680Z,10.65
2023-04-16T17:25:09.430Z,10.68
2023-04-16T17:27:36.162Z,10.66
2023-04-16T17:30:05.306Z,10.68
2023-04-16T17:32:32.723Z,10.67
2023-04-16T17:35:01.019Z,10.64
2023-04-16T17:37:27.606Z,10.61
2023-04-16T17:42:20.559Z,10.52
2023-04-16T17:44:47.374Z,10.55
2023-04-16T17:47:13.783Z,10.56
2023-04-16T17:49:40.222Z,10.51
2023-04-16T17:52:06.836Z,10.52
2023-04-16T17:54:33.241Z,10.44
2023-04-16T17:56:59.654Z,10.37
2023-04-16T17:59:26.263Z,10.34
2023-04-16T18:01:52.965Z,10.20
2023-04-16T18:04:19.785Z,10.21
2023-04-16T18:06:46.531Z,10.22
2023-04-16T18:09:14.227Z,10.18
2023-04-16T18:11:40.728Z,10.21
2023-04-16T18:14:09.769Z,10.22
2023-04-16T18:16:36.507Z,10.15
2023-04-16T18:19:02.987Z,10.14
2023-04-16T18:21:30.242Z,10.09
2023-04-16T18:23:56.769Z,10.13
2023-04-16T18:26:23.346Z,10.14
2023-04-16T18:28:49.818Z,10.17
2023-04-16T18:31:18.984Z,10.22
2023-04-16T18:33:56.589Z,10.23
2023-04-16T18:36:24.455Z,10.23
2023-04-16T18:39:00.962Z,10.19
2023-04-16T18:41:28.967Z,10.22
2023-04-16T18:43:55.445Z,10.25
2023-04-16T18:46:21.902Z,10.24
2023-04-16T18:48:48.406Z,10.24
2023-04-16T18:51:16.286Z,10.27
2023-04-16T18:53:44.374Z,10.29
2023-04-16T18:56:11.585Z,10.30
2023-04-16T18:58:38.137Z,10.24
2023-04-16T19:01:05.207Z,10.26
2023-04-16T19:03:32.269Z,10.28
2023-04-16T19:05:58.921Z,10.25
2023-04-16T19:08:25.375Z,10.29
2023-04-16T19:10:51.829Z,10.31
2023-04-16T19:13:18.336Z,10.31
2023-04-16T19:15:44.885Z,10.31
2023-04-16T19:18:11.286Z,10.25
2023-04-16T19:20:38.126Z,10.27
2023-04-16T19:23:05.639Z,10.28
2023-04-16T19:25:32.655Z,10.29
2023-04-16T19:27:59.314Z,10.28
2023-04-16T19:30:26.394Z,10.30
2023-04-16T19:32:55.141Z,10.27
2023-04-16T19:35:22.187Z,10.31
2023-04-16T19:37:48.722Z,10.32
2023-04-16T19:40:15.318Z,10.28
2023-04-16T19:42:41.787Z,10.27
2023-04-16T19:45:08.468Z,10.30
2023-04-16T19:47:34.875Z,10.26
2023-04-16T19:50:01.459Z,10.24
2023-04-16T19:52:27.871Z,10.23
2023-04-16T19:54:54.301Z,10.22
2023-04-16T19:57:20.913Z,10.25
2023-04-16T19:59:47.383Z,10.26
2023-04-16T20:02:13.950Z,10.27
2023-04-16T20:04:40.522Z,10.26
2023-04-16T20:07:06.921Z,10.28
2023-04-16T20:09:33.335Z,10.30
2023-04-16T20:12:00.646Z,10.27
2023-04-16T20:14:27.137Z,10.29
2023-04-16T20:16:54.213Z,10.27
2023-04-16T20:19:22.005Z,10.29
2023-04-16T20:21:48.380Z,10.29
2023-04-16T20:24:15.348Z,10.29
2023-04-16T20:26:41.916Z,10.26
2023-04-16T20:29:10.000Z,10.25
2023-04-16T20:31:36.775Z,10.26
2023-04-16T20:34:03.754Z,10.29
2023-04-16T20:36:30.463Z,10.30
2023-04-16T20:38:57.340Z,10.30
2023-04-16T20:41:25.326Z,10.31
2023-04-16T20:43:52.954Z,10.30
2023-04-16T20:46:24.211Z,10.30
2023-04-16T20:48:51.594Z,10.30
2023-04-16T20:51:18.151Z,10.29
2023-04-16T20:53:44.650Z,10.26
2023-04-16T20:56:14.640Z,10.21
2023-04-16T20:58:41.855Z,10.20
2023-04-16T21:01:08.456Z,10.23
2023-04-16T21:03:35.209Z,10.23
2023-04-16T21:06:01.957Z,10.20
2023-04-16T21:08:28.379Z,10.19
2023-04-16T21:10:54.788Z,10.18
2023-04-16T21:13:21.735Z,10.20
2023-04-16T21:15:48.286Z,10.22
2023-04-16T21:18:14.912Z,10.20
2023-04-16T21:20:41.342Z,10.15
2023-04-16T21:23:07.886Z,10.14
2023-04-16T21:25:34.322Z,10.13
2023-04-16T21:28:00.892Z,10.14
2023-04-16T21:30:27.368Z,10.14
2023-04-16T21:32:53.839Z,10.14
2023-04-16T21:35:20.361Z,10.11
2023-04-16T21:37:46.832Z,10.09
2023-04-16T21:40:13.422Z,10.06
2023-04-16T21:42:42.115Z,10.04
2023-04-16T21:45:09.584Z,10.06
2023-04-16T21:47:36.816Z,9.96
2023-04-16T21:50:03.957Z,9.89
2023-04-16T21:52:32.694Z,9.87
2023-04-16T21:55:00.116Z,9.90
2023-04-16T21:57:26.600Z,9.87
2023-04-16T21:59:53.066Z,9.95
2023-04-16T22:02:19.673Z,9.97
2023-04-16T22:04:46.262Z,10.02
2023-04-16T22:07:12.707Z,10.05
2023-04-16T22:09:39.673Z,10.06
2023-04-16T22:12:12.758Z,10.09
2023-04-16T22:14:44.005Z,10.09
2023-04-16T22:17:17.105Z,10.10
2023-04-16T22:19:44.517Z,10.11
2023-04-16T22:22:10.976Z,10.12
2023-04-16T22:24:37.447Z,10.12
2023-04-16T22:27:04.171Z,10.13
2023-04-16T22:29:30.625Z,10.15
2023-04-16T22:31:57.273Z,10.11
2023-04-16T22:34:23.771Z,10.12
2023-04-16T22:36:50.218Z,10.14
2023-04-16T22:39:16.634Z,10.14
2023-04-16T22:41:43.025Z,10.13
2023-04-16T22:44:09.468Z,10.10
2023-04-16T22:46:36.375Z,10.09
2023-04-16T22:49:02.861Z,10.06
2023-04-16T22:51:30.558Z,10.01
2023-04-16T22:53:57.022Z,10.03
2023-04-16T22:56:28.462Z,9.99
2023-04-16T22:58:54.948Z,10.00
2023-04-16T23:01:21.569Z,9.99
2023-04-16T23:03:48.065Z,10.01
2023-04-16T23:06:14.770Z,10.01
2023-04-16T23:08:41.384Z,9.92
2023-04-16T23:11:07.845Z,9.93
2023-04-16T23:13:34.224Z,9.89
2023-04-16T23:16:00.758Z,9.90
2023-04-16T23:18:33.443Z,9.88
2023-04-16T23:20:59.844Z,9.80
2023-04-16T23:23:26.386Z,9.78
2023-04-16T23:25:55.735Z,9.67
2023-04-16T23:28:22.303Z,9.63
2023-04-16T23:30:52.839Z,9.62
2023-04-16T23:33:19.394Z,9.61
2023-04-16T23:35:47.033Z,9.60
2023-04-16T23:38:13.418Z,9.50
2023-04-16T23:40:39.903Z,9.46
2023-04-16T23:43:06.365Z,9.39
2023-04-16T23:45:32.866Z,9.28
2023-04-16T23:47:59.379Z,9.33
2023-04-16T23:50:25.955Z,9.38
2023-04-16T23:52:52.466Z,9.38
2023-04-16T23:55:19.043Z,9.42
2023-04-16T23:57:45.502Z,9.49
